sensor_id;sensor_type;location;lat;lon;timestamp;temperature;humidity
11426;DHT22;5769;47.998;7.788;2023-04-24T00:01:26;17.60;91.80
11426;DHT22;5769;47.998;7.788;2023-04-24T00:03:54;17.50;91.90
11426;DHT22;5769;47.998;7.788;2023-04-24T00:06:22;17.60;91.90
11426;DHT22;5769;47.998;7.788;2023-04-24T00:08:49;17.50;92.00
11426;DHT22;5769;47.998;7.788;2023-04-24T00:11:16;17.70;92.10
11426;DHT22;5769;47.998;7.788;2023-04-24T00:13:43;17.50;92.00
11426;DHT22;5769;47.998;7.788;2023-04-24T00:16:10;17.50;92.10
11426;DHT22;5769;47.998;7.788;2023-04-24T00:18:36;17.60;92.00
11426;DHT22;5769;47.998;7.788;2023-04-24T00:21:03;17.50;91.90
11426;DHT22;5769;47.998;7.788;2023-04-24T00:23:31;17.60;91.90
11426;DHT22;5769;47.998;7.788;2023-04-24T00:25:58;17.50;92.00
11426;DHT22;5769;47.998;7.788;2023-04-24T00:28:25;17.60;92.10
11426;DHT22;5769;47.998;7.788;2023-04-24T00:30:51;17.60;91.90
11426;DHT22;5769;47.998;7.788;2023-04-24T00:33:18;17.50;92.00
11426;DHT22;5769;47.998;7.788;2023-04-24T00:35:45;17.60;92.00
11426;DHT22;5769;47.998;7.788;2023-04-24T00:38:11;17.60;92.00
11426;DHT22;5769;47.998;7.788;2023-04-24T00:40:39;17.60;92.00
11426;DHT22;5769;47.998;7.788;2023-04-24T00:43:06;17.60;92.00
11426;DHT22;5769;47.998;7.788;2023-04-24T00:45:33;17.50;91.90
11426;DHT22;5769;47.998;7.788;2023-04-24T00:48:00;17.50;92.00
11426;DHT22;5769;47.998;7.788;2023-04-24T00:50:27;17.60;92.10
11426;DHT22;5769;47.998;7.788;2023-04-24T00:52:54;17.50;92.00
11426;DHT22;5769;47.998;7.788;2023-04-24T00:55:21;17.50;91.90
11426;DHT22;5769;47.998;7.788;2023-04-24T00:57:49;17.50;91.90
11426;DHT22;5769;47.998;7.788;2023-04-24T01:00:16;17.60;91.90
11426;DHT22;5769;47.998;7.788;2023-04-24T01:02:44;17.50;91.90
11426;DHT22;5769;47.998;7.788;2023-04-24T01:05:12;17.60;91.80
11426;DHT22;5769;47.998;7.788;2023-04-24T01:07:39;17.50;91.80
11426;DHT22;5769;47.998;7.788;2023-04-24T01:10:10;17.60;91.80
11426;DHT22;5769;47.998;7.788;2023-04-24T01:12:37;17.60;91.80
11426;DHT22;5769;47.998;7.788;2023-04-24T01:15:06;17.50;91.70
11426;DHT22;5769;47.998;7.788;2023-04-24T01:17:33;17.60;91.80
11426;DHT22;5769;47.998;7.788;2023-04-24T01:20:00;17.60;91.80
11426;DHT22;5769;47.998;7.788;2023-04-24T01:22:32;17.60;91.90
11426;DHT22;5769;47.998;7.788;2023-04-24T01:24:59;17.60;91.80
11426;DHT22;5769;47.998;7.788;2023-04-24T01:27:26;17.50;91.70
11426;DHT22;5769;47.998;7.788;2023-04-24T01:29:53;17.60;91.80
11426;DHT22;5769;47.998;7.788;2023-04-24T01:32:20;17.50;91.80
11426;DHT22;5769;47.998;7.788;2023-04-24T01:34:47;17.60;91.90
11426;DHT22;5769;47.998;7.788;2023-04-24T01:37:14;17.60;91.80
11426;DHT22;5769;47.998;7.788;2023-04-24T01:39:42;17.60;91.70
11426;DHT22;5769;47.998;7.788;2023-04-24T01:42:09;17.50;91.60
11426;DHT22;5769;47.998;7.788;2023-04-24T01:44:36;17.60;91.70
11426;DHT22;5769;47.998;7.788;2023-04-24T01:47:03;17.60;91.70
11426;DHT22;5769;47.998;7.788;2023-04-24T01:49:29;17.60;91.70
11426;DHT22;5769;47.998;7.788;2023-04-24T01:51:56;17.50;91.60
11426;DHT22;5769;47.998;7.788;2023-04-24T01:54:23;17.50;91.60
11426;DHT22;5769;47.998;7.788;2023-04-24T01:56:51;17.50;91.70
11426;DHT22;5769;47.998;7.788;2023-04-24T01:59:19;17.50;91.70
11426;DHT22;5769;47.998;7.788;2023-04-24T02:01:47;17.50;91.70
11426;DHT22;5769;47.998;7.788;2023-04-24T02:04:13;17.60;91.80
11426;DHT22;5769;47.998;7.788;2023-04-24T02:06:40;17.60;91.80
11426;DHT22;5769;47.998;7.788;2023-04-24T02:09:07;17.70;91.80
11426;DHT22;5769;47.998;7.788;2023-04-24T02:11:34;17.60;91.80
11426;DHT22;5769;47.998;7.788;2023-04-24T02:14:02;17.60;91.80
11426;DHT22;5769;47.998;7.788;2023-04-24T02:16:28;17.50;91.70
11426;DHT22;5769;47.998;7.788;2023-04-24T02:18:57;17.50;91.70
11426;DHT22;5769;47.998;7.788;2023-04-24T02:21:24;17.60;91.80
11426;DHT22;5769;47.998;7.788;2023-04-24T02:23:50;17.60;92.10
11426;DHT22;5769;47.998;7.788;2023-04-24T02:26:17;17.50;91.70
11426;DHT22;5769;47.998;7.788;2023-04-24T02:28:44;17.60;91.70
11426;DHT22;5769;47.998;7.788;2023-04-24T02:31:12;17.60;91.70
11426;DHT22;5769;47.998;7.788;2023-04-24T02:33:38;17.60;91.80
11426;DHT22;5769;47.998;7.788;2023-04-24T02:36:05;17.50;91.70
11426;DHT22;5769;47.998;7.788;2023-04-24T02:38:32;17.50;91.70
11426;DHT22;5769;47.998;7.788;2023-04-24T02:40:59;17.50;91.70
11426;DHT22;5769;47.998;7.788;2023-04-24T02:43:26;17.60;91.70
11426;DHT22;5769;47.998;7.788;2023-04-24T02:45:52;17.50;91.70
11426;DHT22;5769;47.998;7.788;2023-04-24T02:48:20;17.50;91.70
11426;DHT22;5769;47.998;7.788;2023-04-24T02:50:47;17.50;91.70
11426;DHT22;5769;47.998;7.788;2023-04-24T02:53:14;17.50;91.70
11426;DHT22;5769;47.998;7.788;2023-04-24T02:55:40;17.50;91.60
11426;DHT22;5769;47.998;7.788;2023-04-24T02:58:07;17.50;91.70
11426;DHT22;5769;47.998;7.788;2023-04-24T03:00:34;17.60;91.70
11426;DHT22;5769;47.998;7.788;2023-04-24T03:03:01;17.50;91.70
11426;DHT22;5769;47.998;7.788;2023-04-24T03:05:29;17.60;91.70
11426;DHT22;5769;47.998;7.788;2023-04-24T03:07:56;17.70;91.80
11426;DHT22;5769;47.998;7.788;2023-04-24T03:10:23;17.50;91.70
11426;DHT22;5769;47.998;7.788;2023-04-24T03:12:49;17.50;91.70
11426;DHT22;5769;47.998;7.788;2023-04-24T03:15:16;17.50;91.70
11426;DHT22;5769;47.998;7.788;2023-04-24T03:17:43;17.50;91.70
11426;DHT22;5769;47.998;7.788;2023-04-24T03:20:10;17.60;91.80
11426;DHT22;5769;47.998;7.788;2023-04-24T03:22:38;17.50;91.70
11426;DHT22;5769;47.998;7.788;2023-04-24T03:25:06;17.70;91.70
11426;DHT22;5769;47.998;7.788;2023-04-24T03:27:34;17.50;91.70
11426;DHT22;5769;47.998;7.788;2023-04-24T03:30:01;17.50;91.60
11426;DHT22;5769;47.998;7.788;2023-04-24T03:32:28;17.60;91.80
11426;DHT22;5769;47.998;7.788;2023-04-24T03:34:55;17.60;91.70
11426;DHT22;5769;47.998;7.788;2023-04-24T03:37:22;17.60;91.70
11426;DHT22;5769;47.998;7.788;2023-04-24T03:39:50;17.50;91.70
11426;DHT22;5769;47.998;7.788;2023-04-24T03:42:17;17.60;91.80
11426;DHT22;5769;47.998;7.788;2023-04-24T03:44:43;17.50;91.70
11426;DHT22;5769;47.998;7.788;2023-04-24T03:47:10;17.50;91.70
11426;DHT22;5769;47.998;7.788;2023-04-24T03:49:37;17.60;91.70
11426;DHT22;5769;47.998;7.788;2023-04-24T03:52:03;17.50;91.70
11426;DHT22;5769;47.998;7.788;2023-04-24T03:54:30;17.50;91.80
11426;DHT22;5769;47.998;7.788;2023-04-24T03:56:58;17.50;91.70
11426;DHT22;5769;47.998;7.788;2023-04-24T03:59:25;17.60;91.80
11426;DHT22;5769;47.998;7.788;2023-04-24T04:01:52;17.60;91.70
11426;DHT22;5769;47.998;7.788;2023-04-24T04:04:18;17.60;91.70
11426;DHT22;5769;47.998;7.788;2023-04-24T04:06:45;17.60;91.80
11426;DHT22;5769;47.998;7.788;2023-04-24T04:09:12;17.60;91.80
11426;DHT22;5769;47.998;7.788;2023-04-24T04:11:39;17.60;91.70
11426;DHT22;5769;47.998;7.788;2023-04-24T04:14:07;17.50;91.70
11426;DHT22;5769;47.998;7.788;2023-04-24T04:16:34;17.60;91.70
11426;DHT22;5769;47.998;7.788;2023-04-24T04:19:01;17.60;91.70
11426;DHT22;5769;47.998;7.788;2023-04-24T04:21:28;17.50;91.70
11426;DHT22;5769;47.998;7.788;2023-04-24T04:23:56;17.60;91.80
11426;DHT22;5769;47.998;7.788;2023-04-24T04:26:23;17.50;91.60
11426;DHT22;5769;47.998;7.788;2023-04-24T04:28:51;17.60;91.70
11426;DHT22;5769;47.998;7.788;2023-04-24T04:31:19;17.60;91.70
11426;DHT22;5769;47.998;7.788;2023-04-24T04:33:46;17.60;91.80
11426;DHT22;5769;47.998;7.788;2023-04-24T04:36:13;17.60;91.70
11426;DHT22;5769;47.998;7.788;2023-04-24T04:38:39;17.60;91.70
11426;DHT22;5769;47.998;7.788;2023-04-24T04:41:08;17.60;91.70
11426;DHT22;5769;47.998;7.788;2023-04-24T04:43:35;17.60;91.70
11426;DHT22;5769;47.998;7.788;2023-04-24T04:46:01;17.50;91.70
11426;DHT22;5769;47.998;7.788;2023-04-24T04:48:30;17.50;91.70
11426;DHT22;5769;47.998;7.788;2023-04-24T04:50:57;17.50;91.60
11426;DHT22;5769;47.998;7.788;2023-04-24T04:53:24;17.60;91.80
11426;DHT22;5769;47.998;7.788;2023-04-24T04:55:51;17.50;91.60
11426;DHT22;5769;47.998;7.788;2023-04-24T04:58:18;17.60;91.70
11426;DHT22;5769;47.998;7.788;2023-04-24T05:00:44;17.60;91.80
11426;DHT22;5769;47.998;7.788;2023-04-24T05:03:11;17.50;91.70
11426;DHT22;5769;47.998;7.788;2023-04-24T05:05:39;17.60;91.70
11426;DHT22;5769;47.998;7.788;2023-04-24T05:08:06;17.60;91.70
11426;DHT22;5769;47.998;7.788;2023-04-24T05:10:33;17.50;91.70
11426;DHT22;5769;47.998;7.788;2023-04-24T05:13:02;17.60;91.70
11426;DHT22;5769;47.998;7.788;2023-04-24T05:15:29;17.50;91.70
11426;DHT22;5769;47.998;7.788;2023-04-24T05:17:55;17.60;91.80
11426;DHT22;5769;47.998;7.788;2023-04-24T05:20:22;17.50;91.80
11426;DHT22;5769;47.998;7.788;2023-04-24T05:22:50;17.50;91.80
11426;DHT22;5769;47.998;7.788;2023-04-24T05:25:17;17.50;91.80
11426;DHT22;5769;47.998;7.788;2023-04-24T05:27:44;17.60;91.80
11426;DHT22;5769;47.998;7.788;2023-04-24T05:30:11;17.60;91.80
11426;DHT22;5769;47.998;7.788;2023-04-24T05:32:38;17.60;91.80
11426;DHT22;5769;47.998;7.788;2023-04-24T05:35:05;17.60;91.80
11426;DHT22;5769;47.998;7.788;2023-04-24T05:37:33;17.60;91.80
11426;DHT22;5769;47.998;7.788;2023-04-24T05:40:01;17.60;91.80
11426;DHT22;5769;47.998;7.788;2023-04-24T05:42:30;17.60;91.70
11426;DHT22;5769;47.998;7.788;2023-04-24T05:44:57;17.60;91.70
11426;DHT22;5769;47.998;7.788;2023-04-24T05:47:23;17.50;91.70
11426;DHT22;5769;47.998;7.788;2023-04-24T05:49:51;17.50;91.70
11426;DHT22;5769;47.998;7.788;2023-04-24T05:52:18;17.50;91.80
11426;DHT22;5769;47.998;7.788;2023-04-24T05:54:45;17.50;91.80
11426;DHT22;5769;47.998;7.788;2023-04-24T05:57:13;17.50;91.80
11426;DHT22;5769;47.998;7.788;2023-04-24T05:59:40;17.60;91.80
11426;DHT22;5769;47.998;7.788;2023-04-24T06:02:07;17.60;91.80
11426;DHT22;5769;47.998;7.788;2023-04-24T06:04:34;17.50;91.70
11426;DHT22;5769;47.998;7.788;2023-04-24T06:07:00;17.50;91.70
11426;DHT22;5769;47.998;7.788;2023-04-24T06:09:28;17.50;91.70
11426;DHT22;5769;47.998;7.788;2023-04-24T06:11:55;17.60;91.80
11426;DHT22;5769;47.998;7.788;2023-04-24T06:14:23;17.50;91.80
11426;DHT22;5769;47.998;7.788;2023-04-24T06:16:50;17.60;91.80
11426;DHT22;5769;47.998;7.788;2023-04-24T06:19:16;17.60;91.80
11426;DHT22;5769;47.998;7.788;2023-04-24T06:21:43;17.50;91.80
11426;DHT22;5769;47.998;7.788;2023-04-24T06:24:10;17.60;91.80
11426;DHT22;5769;47.998;7.788;2023-04-24T06:26:37;17.50;91.80
11426;DHT22;5769;47.998;7.788;2023-04-24T06:29:04;17.60;91.80
11426;DHT22;5769;47.998;7.788;2023-04-24T06:31:32;17.50;91.70
11426;DHT22;5769;47.998;7.788;2023-04-24T06:34:02;17.60;91.80
11426;DHT22;5769;47.998;7.788;2023-04-24T06:36:29;17.50;91.80
11426;DHT22;5769;47.998;7.788;2023-04-24T06:38:56;17.60;91.80
11426;DHT22;5769;47.998;7.788;2023-04-24T06:41:23;17.50;91.80
11426;DHT22;5769;47.998;7.788;2023-04-24T06:43:49;17.60;91.80
11426;DHT22;5769;47.998;7.788;2023-04-24T06:46:16;17.50;91.90
11426;DHT22;5769;47.998;7.788;2023-04-24T06:48:44;17.60;91.80
11426;DHT22;5769;47.998;7.788;2023-04-24T06:51:11;17.50;91.80
11426;DHT22;5769;47.998;7.788;2023-04-24T06:53:37;17.50;91.80
11426;DHT22;5769;47.998;7.788;2023-04-24T06:56:04;17.50;91.80
11426;DHT22;5769;47.998;7.788;2023-04-24T06:58:31;17.50;91.80
11426;DHT22;5769;47.998;7.788;2023-04-24T07:00:57;17.60;91.80
11426;DHT22;5769;47.998;7.788;2023-04-24T07:03:24;17.50;91.70
11426;DHT22;5769;47.998;7.788;2023-04-24T07:05:52;17.60;91.80
11426;DHT22;5769;47.998;7.788;2023-04-24T07:08:19;17.60;91.80
11426;DHT22;5769;47.998;7.788;2023-04-24T07:10:48;17.60;91.80
11426;DHT22;5769;47.998;7.788;2023-04-24T07:13:14;17.50;91.80
11426;DHT22;5769;47.998;7.788;2023-04-24T07:15:41;17.60;91.80
11426;DHT22;5769;47.998;7.788;2023-04-24T07:18:08;17.60;91.80
11426;DHT22;5769;47.998;7.788;2023-04-24T07:20:34;17.60;91.80
11426;DHT22;5769;47.998;7.788;2023-04-24T07:23:02;17.50;91.80
11426;DHT22;5769;47.998;7.788;2023-04-24T07:25:29;17.60;91.80
11426;DHT22;5769;47.998;7.788;2023-04-24T07:27:57;17.50;91.80
11426;DHT22;5769;47.998;7.788;2023-04-24T07:30:23;17.60;91.70
11426;DHT22;5769;47.998;7.788;2023-04-24T07:32:50;17.60;91.80
11426;DHT22;5769;47.998;7.788;2023-04-24T07:35:17;17.60;91.90
11426;DHT22;5769;47.998;7.788;2023-04-24T07:37:43;17.60;91.90
11426;DHT22;5769;47.998;7.788;2023-04-24T07:40:13;17.50;91.80
11426;DHT22;5769;47.998;7.788;2023-04-24T07:42:40;17.60;91.90
11426;DHT22;5769;47.998;7.788;2023-04-24T07:45:07;17.50;91.90
11426;DHT22;5769;47.998;7.788;2023-04-24T07:47:34;17.50;91.90
11426;DHT22;5769;47.998;7.788;2023-04-24T07:50:02;17.60;91.90
11426;DHT22;5769;47.998;7.788;2023-04-24T07:52:28;17.50;91.80
11426;DHT22;5769;47.998;7.788;2023-04-24T07:54:55;17.50;91.80
11426;DHT22;5769;47.998;7.788;2023-04-24T07:57:25;17.50;91.70
11426;DHT22;5769;47.998;7.788;2023-04-24T07:59:52;17.50;91.70
11426;DHT22;5769;47.998;7.788;2023-04-24T08:02:18;17.60;91.80
11426;DHT22;5769;47.998;7.788;2023-04-24T08:04:47;17.50;91.80
11426;DHT22;5769;47.998;7.788;2023-04-24T08:07:13;17.60;91.80
11426;DHT22;5769;47.998;7.788;2023-04-24T08:09:40;17.50;91.80
11426;DHT22;5769;47.998;7.788;2023-04-24T08:12:07;17.50;91.80
11426;DHT22;5769;47.998;7.788;2023-04-24T08:14:35;17.70;91.90
11426;DHT22;5769;47.998;7.788;2023-04-24T08:17:01;17.60;91.80
11426;DHT22;5769;47.998;7.788;2023-04-24T08:19:28;17.50;91.80
11426;DHT22;5769;47.998;7.788;2023-04-24T08:21:55;17.60;91.80
11426;DHT22;5769;47.998;7.788;2023-04-24T08:24:22;17.50;91.80
11426;DHT22;5769;47.998;7.788;2023-04-24T08:26:49;17.60;91.80
11426;DHT22;5769;47.998;7.788;2023-04-24T08:29:16;17.50;91.90
11426;DHT22;5769;47.998;7.788;2023-04-24T08:31:44;17.60;91.80
11426;DHT22;5769;47.998;7.788;2023-04-24T08:34:11;17.60;91.80
11426;DHT22;5769;47.998;7.788;2023-04-24T08:36:38;17.50;91.80
11426;DHT22;5769;47.998;7.788;2023-04-24T08:39:06;17.50;91.90
11426;DHT22;5769;47.998;7.788;2023-04-24T08:41:34;17.50;91.90
11426;DHT22;5769;47.998;7.788;2023-04-24T08:44:01;17.60;91.90
11426;DHT22;5769;47.998;7.788;2023-04-24T08:46:30;17.60;91.90
11426;DHT22;5769;47.998;7.788;2023-04-24T08:48:58;17.50;91.80
11426;DHT22;5769;47.998;7.788;2023-04-24T08:51:26;17.50;91.80
11426;DHT22;5769;47.998;7.788;2023-04-24T08:53:54;17.50;91.80
11426;DHT22;5769;47.998;7.788;2023-04-24T08:56:22;17.60;91.80
11426;DHT22;5769;47.998;7.788;2023-04-24T08:58:50;17.60;91.80
11426;DHT22;5769;47.998;7.788;2023-04-24T09:01:17;17.50;91.80
11426;DHT22;5769;47.998;7.788;2023-04-24T09:03:45;17.60;91.90
11426;DHT22;5769;47.998;7.788;2023-04-24T09:06:14;17.60;91.80
11426;DHT22;5769;47.998;7.788;2023-04-24T09:08:42;17.60;91.80
11426;DHT22;5769;47.998;7.788;2023-04-24T09:11:10;17.60;91.80
11426;DHT22;5769;47.998;7.788;2023-04-24T09:13:37;17.60;91.80
11426;DHT22;5769;47.998;7.788;2023-04-24T09:16:04;17.60;91.70
11426;DHT22;5769;47.998;7.788;2023-04-24T09:18:31;17.60;91.80
11426;DHT22;5769;47.998;7.788;2023-04-24T09:21:00;17.60;91.70
11426;DHT22;5769;47.998;7.788;2023-04-24T09:23:30;17.50;91.70
11426;DHT22;5769;47.998;7.788;2023-04-24T09:25:58;17.50;91.70
11426;DHT22;5769;47.998;7.788;2023-04-24T09:28:26;17.60;91.70
11426;DHT22;5769;47.998;7.788;2023-04-24T09:31:07;17.70;91.80
11426;DHT22;5769;47.998;7.788;2023-04-24T09:33:34;17.60;91.70
11426;DHT22;5769;47.998;7.788;2023-04-24T09:36:01;17.60;91.70
11426;DHT22;5769;47.998;7.788;2023-04-24T09:38:33;17.60;91.70
11426;DHT22;5769;47.998;7.788;2023-04-24T09:41:01;17.50;91.60
11426;DHT22;5769;47.998;7.788;2023-04-24T09:43:28;17.60;91.70
11426;DHT22;5769;47.998;7.788;2023-04-24T09:45:56;17.60;91.70
11426;DHT22;5769;47.998;7.788;2023-04-24T09:48:34;17.70;91.80
11426;DHT22;5769;47.998;7.788;2023-04-24T09:51:03;17.60;91.80
11426;DHT22;5769;47.998;7.788;2023-04-24T09:53:31;17.50;91.60
11426;DHT22;5769;47.998;7.788;2023-04-24T09:56:02;17.50;91.60
11426;DHT22;5769;47.998;7.788;2023-04-24T09:58:29;17.50;91.70
11426;DHT22;5769;47.998;7.788;2023-04-24T10:00:56;17.70;91.70
11426;DHT22;5769;47.998;7.788;2023-04-24T10:03:24;17.50;91.80
11426;DHT22;5769;47.998;7.788;2023-04-24T10:05:52;17.50;91.80
11426;DHT22;5769;47.998;7.788;2023-04-24T10:08:20;17.50;91.80
11426;DHT22;5769;47.998;7.788;2023-04-24T10:10:49;17.60;91.80
11426;DHT22;5769;47.998;7.788;2023-04-24T10:13:15;17.60;91.80
11426;DHT22;5769;47.998;7.788;2023-04-24T10:15:42;17.50;91.80
11426;DHT22;5769;47.998;7.788;2023-04-24T10:18:10;17.60;91.80
11426;DHT22;5769;47.998;7.788;2023-04-24T10:20:38;17.50;91.70
11426;DHT22;5769;47.998;7.788;2023-04-24T10:23:05;17.50;91.70
11426;DHT22;5769;47.998;7.788;2023-04-24T10:25:34;17.60;91.70
11426;DHT22;5769;47.998;7.788;2023-04-24T10:28:03;17.60;91.70
11426;DHT22;5769;47.998;7.788;2023-04-24T10:30:31;17.60;91.80
11426;DHT22;5769;47.998;7.788;2023-04-24T10:33:00;17.60;91.80
11426;DHT22;5769;47.998;7.788;2023-04-24T10:35:30;17.50;91.80
11426;DHT22;5769;47.998;7.788;2023-04-24T10:38:01;17.50;91.80
11426;DHT22;5769;47.998;7.788;2023-04-24T10:40:31;17.60;91.80
11426;DHT22;5769;47.998;7.788;2023-04-24T10:42:59;17.60;91.80
11426;DHT22;5769;47.998;7.788;2023-04-24T10:45:32;17.50;91.90
11426;DHT22;5769;47.998;7.788;2023-04-24T10:48:02;17.60;91.80
11426;DHT22;5769;47.998;7.788;2023-04-24T10:50:41;17.50;91.80
11426;DHT22;5769;47.998;7.788;2023-04-24T10:53:19;17.60;91.80
11426;DHT22;5769;47.998;7.788;2023-04-24T10:55:48;17.60;91.80
11426;DHT22;5769;47.998;7.788;2023-04-24T10:58:15;17.50;91.80
11426;DHT22;5769;47.998;7.788;2023-04-24T11:00:44;17.50;91.80
11426;DHT22;5769;47.998;7.788;2023-04-24T11:03:25;17.50;91.80
11426;DHT22;5769;47.998;7.788;2023-04-24T11:05:55;17.50;91.90
11426;DHT22;5769;47.998;7.788;2023-04-24T11:08:30;17.60;91.90
11426;DHT22;5769;47.998;7.788;2023-04-24T11:11:03;17.50;91.90
11426;DHT22;5769;47.998;7.788;2023-04-24T11:14:05;17.60;91.90
11426;DHT22;5769;47.998;7.788;2023-04-24T11:16:35;17.60;92.00
11426;DHT22;5769;47.998;7.788;2023-04-24T11:19:06;17.60;92.00
11426;DHT22;5769;47.998;7.788;2023-04-24T11:21:39;17.50;91.90
11426;DHT22;5769;47.998;7.788;2023-04-24T11:24:31;17.60;91.90
11426;DHT22;5769;47.998;7.788;2023-04-24T11:27:05;17.60;91.90
11426;DHT22;5769;47.998;7.788;2023-04-24T11:29:40;17.60;91.90
11426;DHT22;5769;47.998;7.788;2023-04-24T11:32:23;17.50;91.90
11426;DHT22;5769;47.998;7.788;2023-04-24T11:34:51;17.50;91.90
11426;DHT22;5769;47.998;7.788;2023-04-24T11:37:18;17.60;91.80
11426;DHT22;5769;47.998;7.788;2023-04-24T11:39:44;17.50;91.80
11426;DHT22;5769;47.998;7.788;2023-04-24T11:42:14;17.50;91.80
11426;DHT22;5769;47.998;7.788;2023-04-24T11:44:41;17.50;91.80
11426;DHT22;5769;47.998;7.788;2023-04-24T11:47:08;17.60;91.90
11426;DHT22;5769;47.998;7.788;2023-04-24T11:49:38;17.60;92.30
11426;DHT22;5769;47.998;7.788;2023-04-24T11:52:05;17.60;92.00
11426;DHT22;5769;47.998;7.788;2023-04-24T11:54:32;17.60;92.00
11426;DHT22;5769;47.998;7.788;2023-04-24T11:56:58;17.60;92.00
11426;DHT22;5769;47.998;7.788;2023-04-24T11:59:25;17.60;91.80
11426;DHT22;5769;47.998;7.788;2023-04-24T12:01:52;17.60;91.90
11426;DHT22;5769;47.998;7.788;2023-04-24T12:04:18;17.50;91.90
11426;DHT22;5769;47.998;7.788;2023-04-24T12:07:02;17.60;91.90
11426;DHT22;5769;47.998;7.788;2023-04-24T12:09:29;17.50;91.90
11426;DHT22;5769;47.998;7.788;2023-04-24T12:11:58;17.60;91.90
11426;DHT22;5769;47.998;7.788;2023-04-24T12:14:26;17.50;92.00
11426;DHT22;5769;47.998;7.788;2023-04-24T12:16:53;17.60;92.00
11426;DHT22;5769;47.998;7.788;2023-04-24T12:19:21;17.60;92.00
11426;DHT22;5769;47.998;7.788;2023-04-24T12:22:00;17.60;92.00
11426;DHT22;5769;47.998;7.788;2023-04-24T12:24:28;17.60;92.10
11426;DHT22;5769;47.998;7.788;2023-04-24T12:26:55;17.50;92.10
11426;DHT22;5769;47.998;7.788;2023-04-24T12:29:23;17.50;92.10
11426;DHT22;5769;47.998;7.788;2023-04-24T12:31:51;17.50;92.10
11426;DHT22;5769;47.998;7.788;2023-04-24T12:34:18;17.70;92.20
11426;DHT22;5769;47.998;7.788;2023-04-24T12:36:46;17.60;92.10
11426;DHT22;5769;47.998;7.788;2023-04-24T12:39:16;17.50;92.20
11426;DHT22;5769;47.998;7.788;2023-04-24T12:41:54;17.50;92.10
11426;DHT22;5769;47.998;7.788;2023-04-24T12:44:29;17.50;92.10
11426;DHT22;5769;47.998;7.788;2023-04-24T12:46:56;17.60;92.10
11426;DHT22;5769;47.998;7.788;2023-04-24T12:49:23;17.50;92.00
11426;DHT22;5769;47.998;7.788;2023-04-24T12:51:50;17.50;92.10
11426;DHT22;5769;47.998;7.788;2023-04-24T12:54:16;17.50;92.10
11426;DHT22;5769;47.998;7.788;2023-04-24T12:56:43;17.60;92.10
11426;DHT22;5769;47.998;7.788;2023-04-24T12:59:11;17.50;92.00
11426;DHT22;5769;47.998;7.788;2023-04-24T13:01:38;17.60;92.00
11426;DHT22;5769;47.998;7.788;2023-04-24T13:04:05;17.50;92.10
11426;DHT22;5769;47.998;7.788;2023-04-24T13:06:32;17.50;92.10
11426;DHT22;5769;47.998;7.788;2023-04-24T13:08:59;17.60;92.10
11426;DHT22;5769;47.998;7.788;2023-04-24T13:11:26;17.50;92.00
11426;DHT22;5769;47.998;7.788;2023-04-24T13:13:52;17.50;92.10
11426;DHT22;5769;47.998;7.788;2023-04-24T13:16:20;17.60;92.10
11426;DHT22;5769;47.998;7.788;2023-04-24T13:18:48;17.50;92.10
11426;DHT22;5769;47.998;7.788;2023-04-24T13:21:15;17.60;92.10
11426;DHT22;5769;47.998;7.788;2023-04-24T13:23:42;17.60;92.10
11426;DHT22;5769;47.998;7.788;2023-04-24T13:26:08;17.50;92.10
11426;DHT22;5769;47.998;7.788;2023-04-24T13:28:35;17.50;92.00
11426;DHT22;5769;47.998;7.788;2023-04-24T13:31:03;17.60;92.00
11426;DHT22;5769;47.998;7.788;2023-04-24T13:33:31;17.50;92.00
11426;DHT22;5769;47.998;7.788;2023-04-24T13:35:58;17.50;92.20
11426;DHT22;5769;47.998;7.788;2023-04-24T13:38:25;17.50;92.10
11426;DHT22;5769;47.998;7.788;2023-04-24T13:40:51;17.50;92.00
11426;DHT22;5769;47.998;7.788;2023-04-24T13:43:18;17.50;92.00
11426;DHT22;5769;47.998;7.788;2023-04-24T13:45:45;17.60;92.10
11426;DHT22;5769;47.998;7.788;2023-04-24T13:48:11;17.50;92.10
11426;DHT22;5769;47.998;7.788;2023-04-24T13:50:42;17.50;92.10
11426;DHT22;5769;47.998;7.788;2023-04-24T13:53:09;17.60;92.10
11426;DHT22;5769;47.998;7.788;2023-04-24T13:55:36;17.60;92.20
11426;DHT22;5769;47.998;7.788;2023-04-24T13:58:04;17.50;92.20
11426;DHT22;5769;47.998;7.788;2023-04-24T14:00:31;17.50;92.20
11426;DHT22;5769;47.998;7.788;2023-04-24T14:02:58;17.50;92.30
11426;DHT22;5769;47.998;7.788;2023-04-24T14:05:25;17.60;92.10
11426;DHT22;5769;47.998;7.788;2023-04-24T14:07:53;17.60;92.20
11426;DHT22;5769;47.998;7.788;2023-04-24T14:10:19;17.50;92.30
11426;DHT22;5769;47.998;7.788;2023-04-24T14:12:46;17.50;92.20
11426;DHT22;5769;47.998;7.788;2023-04-24T14:15:13;17.60;92.10
11426;DHT22;5769;47.998;7.788;2023-04-24T14:17:40;17.60;92.10
11426;DHT22;5769;47.998;7.788;2023-04-24T14:20:08;17.50;92.00
11426;DHT22;5769;47.998;7.788;2023-04-24T14:22:35;17.50;92.10
11426;DHT22;5769;47.998;7.788;2023-04-24T14:25:04;17.60;92.20
11426;DHT22;5769;47.998;7.788;2023-04-24T14:27:31;17.60;92.20
11426;DHT22;5769;47.998;7.788;2023-04-24T14:29:59;17.50;92.10
11426;DHT22;5769;47.998;7.788;2023-04-24T14:32:26;17.60;92.20
11426;DHT22;5769;47.998;7.788;2023-04-24T14:34:53;17.60;92.20
11426;DHT22;5769;47.998;7.788;2023-04-24T14:37:20;17.60;92.30
11426;DHT22;5769;47.998;7.788;2023-04-24T14:39:47;17.50;92.30
11426;DHT22;5769;47.998;7.788;2023-04-24T14:42:15;17.50;92.30
11426;DHT22;5769;47.998;7.788;2023-04-24T14:44:42;17.60;92.20
11426;DHT22;5769;47.998;7.788;2023-04-24T14:47:08;17.60;92.20
11426;DHT22;5769;47.998;7.788;2023-04-24T14:49:35;17.60;92.20
11426;DHT22;5769;47.998;7.788;2023-04-24T14:52:02;17.60;92.30
11426;DHT22;5769;47.998;7.788;2023-04-24T14:54:29;17.50;92.40
11426;DHT22;5769;47.998;7.788;2023-04-24T14:56:56;17.60;92.30
11426;DHT22;5769;47.998;7.788;2023-04-24T14:59:24;17.60;92.40
11426;DHT22;5769;47.998;7.788;2023-04-24T15:01:51;17.60;92.30
11426;DHT22;5769;47.998;7.788;2023-04-24T15:04:20;17.50;92.30
11426;DHT22;5769;47.998;7.788;2023-04-24T15:06:47;17.60;92.30
11426;DHT22;5769;47.998;7.788;2023-04-24T15:09:14;17.50;92.30
11426;DHT22;5769;47.998;7.788;2023-04-24T15:11:41;17.60;92.40
11426;DHT22;5769;47.998;7.788;2023-04-24T15:14:08;17.60;92.40
11426;DHT22;5769;47.998;7.788;2023-04-24T15:16:36;17.60;92.30
11426;DHT22;5769;47.998;7.788;2023-04-24T15:19:03;17.60;92.30
11426;DHT22;5769;47.998;7.788;2023-04-24T15:23:57;17.50;92.10
11426;DHT22;5769;47.998;7.788;2023-04-24T15:26:24;17.60;92.40
11426;DHT22;5769;47.998;7.788;2023-04-24T15:28:51;17.50;92.40
11426;DHT22;5769;47.998;7.788;2023-04-24T15:31:18;17.60;92.40
11426;DHT22;5769;47.998;7.788;2023-04-24T15:33:46;17.50;92.20
11426;DHT22;5769;47.998;7.788;2023-04-24T15:36:14;17.50;92.20
11426;DHT22;5769;47.998;7.788;2023-04-24T15:38:42;17.50;92.30
11426;DHT22;5769;47.998;7.788;2023-04-24T15:41:09;17.60;92.20
11426;DHT22;5769;47.998;7.788;2023-04-24T15:43:36;17.60;92.60
11426;DHT22;5769;47.998;7.788;2023-04-24T15:46:04;17.50;92.30
11426;DHT22;5769;47.998;7.788;2023-04-24T15:48:31;17.60;92.30
11426;DHT22;5769;47.998;7.788;2023-04-24T15:50:59;17.50;92.30